x

Yucatan Basin - 120 Nm Ese Of Cozumel, Mx (42056) Wave Buoy

8:50pm - Fri 25th Jul 2014 All times are CDT. -5 hours from GMT.

  • Sig Wave height 3.9ft
  • Swell Direction
  • Peak Period 8s
  • Average Period 5s
  • Wind
    16mph, 18mph gusts
  • 空気 Temp 85°f
  • Sea Pressure 1015.5mb
  •  Yucatan Basin - 120 Nm Ese Of Cozumel, Mx
  •  Yucatan Basin - 120 Nm Ese Of Cozumel, Mx

More Historic Weather Station data

Upgrade to MSW Pro to gain access to the past 30 days of data for over 8000 Wavebouys and Weather Stations around the globe.

Join Pro

Comparision Forecast

View Surf forecast
   
Fri 07/25 8:50pm 4ft 8s 5s 16 18 mph 1015.5mb 85f
7:50pm 4ft 9s 5s 16 18 mph 1014.8mb 85f
6:50pm 4.5ft 9s 5s 16 18 mph 1014.5mb 85f
5:50pm 4ft 9s 6s 13 16 mph 1014.4mb 85f
4:50pm 4ft 9s 5s 13 16 mph 1014.5mb 85f
3:50pm 3.5ft 9s 5s 13 16 mph 1014.7mb 85f
2:50pm 3.5ft 9s 5s 16 18 mph 1014.8mb 85f
1:50pm 3.5ft 7s 5s 16 18 mph 1015.2mb 85f
12:50pm 3.5ft 9s 5s 16 20 mph 1015.9mb 85f
11:50am 3.5ft 9s 5s 16 20 mph 1016.2mb 85f
10:50am 3.5ft 9s 5s 13 18 mph 1016.4mb 85f
9:50am 3.5ft 9s 5s 16 18 mph 1016.5mb 85f
8:50am 3.5ft 8s 5s 16 18 mph 1016.3mb 85f
7:50am 3.5ft 8s 6s 13 18 mph 1016mb 85f
6:50am 3.5ft 8s 6s 11 13 mph 1015.6mb 84f
5:50am 3.5ft 8s 6s 9 11 mph 1015mb 84f
4:50am 3.5ft 8s 6s 11 13 mph 1014.9mb 84f
3:50am 3.5ft 8s 6s 11 13 mph 1015mb 84f
2:50am 3.5ft 7s 6s 7
mph
1015.1mb 84f
1:50am 3.5ft 9s 6s 7
mph
1015.6mb 84f
12:50am 3.5ft 6s 6s 9
mph
1016.1mb 85f
Thu 07/24 11:50pm 3.5ft 7s 6s 7 9 mph 1016.6mb 85f
10:50pm 3.5ft 9s 6s 9
mph
1016.6mb 85f
9:50pm 3.5ft 8s 6s 9 11 mph 1016mb 85f
8:50pm 3.5ft 8s 6s 11 13 mph 1015.4mb 85f
7:50pm 3.5ft 9s 6s 9 11 mph 1014.5mb 85f
6:50pm 3.5ft 8s 6s 11
mph
1014.1mb 85f
5:50pm 3.5ft 9s 6s 9 11 mph 1013.9mb 85f
4:50pm 3.5ft 9s 6s 4 7 mph 1013.8mb 85f
3:50pm 3.5ft 7s 6s 4 7 mph 1014mb 85f
2:50pm 3.5ft 9s 6s 4 7 mph 1014.3mb 85f
1:50pm 3.5ft 9s 6s 7 9 mph 1015.1mb 85f
12:50pm 3.5ft 8s 6s 7
mph
1015.6mb 84f
11:50am 3.5ft 8s 6s 9 11 mph 1015.8mb 84f
10:50am 4ft 8s 6s 9 11 mph 1015.8mb 84f
9:50am 3.5ft 8s 6s 9 11 mph 1015.4mb 84f
8:50am 3.5ft 9s 6s 9 11 mph 1015.6mb 83f
7:50am 4ft 9s 6s 11 13 mph 1015.3mb 83f
6:50am 4ft 9s 6s 13 16 mph 1015.1mb 84f
5:50am 4ft 9s 5s 13 16 mph 1014.2mb 84f
4:50am 4.5ft 9s 6s 13 16 mph 1013.9mb 84f
3:50am 4.5ft 9s 6s 13 18 mph 1013.6mb 84f
2:50am 4ft 9s 5s 16 18 mph 1013.5mb 84f
1:50am 4ft 10s 5s 16 18 mph 1013.7mb 85f
12:50am 4.5ft 10s 6s 13 16 mph 1014.4mb 85f
Wed 07/23 11:50pm 4ft 9s 5s 16 18 mph 1015mb 85f
10:50pm 4.5ft 10s 6s 16 18 mph 1015.4mb 85f
9:50pm 4.5ft 10s 6s 13 18 mph 1015.2mb 85f
8:50pm 4.5ft 10s 6s 16 18 mph 1015.4mb 85f
7:50pm 4.5ft 10s 6s 16 18 mph 1014.9mb 85f
6:50pm 4.5ft 10s 6s 16 18 mph 1014.4mb 85f
5:50pm 4.5ft 9s 6s 13 18 mph 1014.4mb 84f
3:50pm 4.5ft 9s 6s 16 18 mph 1014.6mb 85f
2:50pm 4.5ft 9s 6s 13 16 mph 1014.9mb 85f
1:50pm 4.5ft 10s 6s 11 13 mph 1015.8mb 85f
12:50pm 4ft 9s 6s 11 13 mph 1016.3mb 85f
11:50am 4ft 7s 6s 11 13 mph 1016.7mb 85f
10:50am 4.5ft 9s 6s 11 16 mph 1016.9mb 85f
9:50am 4.5ft 8s 6s 11 13 mph 1016.8mb 84f
8:50am 4.5ft 8s 6s 11 13 mph 1016.4mb 84f
7:50am 4.5ft 7s 6s 11 13 mph 1016.1mb 84f
6:50am 4.5ft 7s 6s 9 11 mph 1015.6mb 84f
5:50am 4ft 8s 6s 9 13 mph 1015.5mb 84f
4:50am 4.5ft 8s 6s 7 9 mph 1015.3mb 84f
3:50am 4ft 8s 6s 7
mph
1015.4mb 84f
2:50am 4ft 8s 6s 4 7 mph 1015.3mb 84f
1:50am 4.5ft 9s 6s 7 9 mph 1015.6mb 84f
12:50am 4ft 9s 6s 9 11 mph 1015.9mb 84f
Tue 07/22 11:50pm 4ft 7s 5s 11
mph
1016.5mb 85f
10:50pm 4ft 7s 5s 11 16 mph 1016.6mb 85f
9:50pm 4ft 7s 5s 13 16 mph 1016.2mb 85f
8:50pm 4.5ft 8s 5s 13 16 mph 1015.9mb 85f
7:50pm 4.5ft 9s 5s 13 16 mph 1015.6mb 85f
6:50pm 4.5ft 6s 5s 13 18 mph 1015.1mb 80f
5:50pm 4.5ft 7s 5s 16 18 mph 1014.6mb 84f
4:50pm 4ft 7s 5s 18 22 mph 1014.5mb 84f
3:50pm 4ft 7s 5s 16 18 mph 1014.7mb 84f
2:50pm 4ft 7s 5s 11 13 mph 1015.2mb 84f
1:50pm 3.5ft 9s 5s 13 18 mph 1015.9mb 85f
12:50pm 4ft 7s 5s 16 18 mph 1016.2mb 85f
11:50am 3.5ft 8s 5s 13 16 mph 1016.3mb 85f
10:50am 3.5ft 8s 5s 13 16 mph 1016.2mb 84f
9:50am 3.5ft 8s 5s 13
mph
1015.9mb 84f
8:50am 3.5ft 8s 6s 13 16 mph 1015.5mb 84f
7:50am 4ft 8s 5s 11 13 mph 1015.1mb 84f
6:50am 4ft 7s 5s 13 16 mph 1014.7mb 83f
5:50am 4ft 8s 5s 13 16 mph 1014.4mb 83f
4:50am 3.5ft 9s 6s 20 25 mph 1014.2mb 81f
3:50am 3.5ft 9s 6s 11 13 mph 1014.5mb 83f